Time;durP1;ratioP1;P1;durP2;ratioP2;P2;SDS_P1;SDS_P2;PMS_P1;PMS_P2;Temp;Humidity;BMP_temperature;BMP_pressure;BME280_temperature;BME280_humidity;BME280_pressure;Samples;Min_cycle;Max_cycle;Signal;HPM_P1;HPM_P2
2021/01/26 00:00:16;;;;;;;32.42;14.68;;;;;;;-1.82;100.00;97096.94;4999000;28;20541;-79
2021/01/26 00:02:44;;;;;;;34.40;14.85;;;;;;;-1.88;100.00;97103.22;5015246;28;20053;-79
2021/01/26 00:05:11;;;;;;;27.63;14.13;;;;;;;-1.89;100.00;97104.28;5033126;28;20054;-79
2021/01/26 00:07:37;;;;;;;31.95;14.18;;;;;;;-1.96;100.00;97106.31;4998515;28;20050;-79
2021/01/26 00:10:06;;;;;;;30.05;14.43;;;;;;;-2.00;100.00;97115.81;4998044;28;20052;-79
2021/01/26 00:12:34;;;;;;;32.88;15.25;;;;;;;-2.08;100.00;97109.13;5015185;28;20067;-79
2021/01/26 00:15:00;;;;;;;29.00;14.27;;;;;;;-2.14;100.00;97109.31;5032427;28;20038;-80
2021/01/26 00:17:27;;;;;;;31.02;14.63;;;;;;;-2.20;100.00;97115.59;5013535;28;20064;-78
2021/01/26 00:19:54;;;;;;;35.25;16.65;;;;;;;-2.21;100.00;97122.72;5015491;28;20046;-79
2021/01/26 00:22:20;;;;;;;31.33;14.90;;;;;;;-2.15;100.00;97123.59;4998949;28;20045;-79
2021/01/26 00:24:46;;;;;;;33.88;14.48;;;;;;;-2.05;100.00;97119.22;5033525;28;20037;-78
2021/01/26 00:27:12;;;;;;;34.47;14.30;;;;;;;-2.06;100.00;97117.63;5015598;28;20124;-78
2021/01/26 00:29:39;;;;;;;28.67;14.05;;;;;;;-2.00;100.00;97121.13;4999094;28;20065;-78
2021/01/26 00:32:06;;;;;;;34.65;14.40;;;;;;;-2.07;100.00;97113.38;5015439;28;20105;-78
2021/01/26 00:34:32;;;;;;;32.28;14.13;;;;;;;-2.06;100.00;97107.00;5007572;28;20664;-78
2021/01/26 00:36:59;;;;;;;31.25;14.20;;;;;;;-2.15;100.00;97102.41;5002832;28;20044;-79
2021/01/26 00:39:25;;;;;;;29.88;14.07;;;;;;;-2.22;100.00;97115.03;5053107;28;20049;-79
2021/01/26 00:41:51;;;;;;;33.60;15.70;;;;;;;-2.29;100.00;97109.09;5017636;28;20520;-78
2021/01/26 00:44:18;;;;;;;30.40;15.60;;;;;;;-2.29;100.00;97125.00;5033714;28;20040;-78
2021/01/26 00:46:44;;;;;;;33.92;16.52;;;;;;;-2.33;100.00;97113.31;5034167;28;20049;-78
2021/01/26 00:49:10;;;;;;;36.92;17.13;;;;;;;-2.30;100.00;97118.13;5018134;28;20045;-78
2021/01/26 00:51:38;;;;;;;36.75;16.30;;;;;;;-2.38;100.00;97114.03;5017990;28;20385;-78
2021/01/26 00:54:04;;;;;;;36.03;15.50;;;;;;;-2.37;100.00;97117.47;5021470;28;20045;-78
2021/01/26 00:56:31;;;;;;;33.78;16.08;;;;;;;-2.44;100.00;97119.50;5056123;28;20049;-78
2021/01/26 00:59:00;;;;;;;30.85;16.23;;;;;;;-2.55;100.00;97113.25;5056681;28;20551;-78
2021/01/26 01:01:26;;;;;;;32.20;16.67;;;;;;;-2.53;100.00;97113.84;5038503;28;20044;-78
2021/01/26 01:03:52;;;;;;;33.92;15.93;;;;;;;-2.60;100.00;97123.78;5021332;28;20575;-78
2021/01/26 01:06:19;;;;;;;32.15;16.75;;;;;;;-2.70;100.00;97127.09;5055967;28;20044;-79
2021/01/26 01:08:45;;;;;;;33.35;16.30;;;;;;;-2.80;100.00;97129.59;5038713;28;20075;-78
2021/01/26 01:11:14;;;;;;;36.15;16.98;;;;;;;-2.86;100.00;97133.22;5039109;28;20041;-78
2021/01/26 01:13:40;;;;;;;37.88;17.08;;;;;;;-2.95;100.00;97129.38;5022547;28;20055;-78
2021/01/26 01:16:06;;;;;;;33.80;16.63;;;;;;;-3.10;100.00;97131.78;5056623;28;20447;-79
2021/01/26 01:18:34;;;;;;;35.58;17.10;;;;;;;-3.11;100.00;97132.00;5057051;28;20049;-78
2021/01/26 01:21:00;;;;;;;43.92;17.15;;;;;;;-3.18;100.00;97132.19;5039532;28;20143;-78
2021/01/26 01:23:26;;;;;;;35.55;16.83;;;;;;;-3.23;100.00;97126.81;5058837;28;20052;-78
2021/01/26 01:26:00;;;;;;;36.00;16.13;;;;;;;-3.18;100.00;97135.66;5061448;28;20045;-78
2021/01/26 01:28:27;;;;;;;31.90;15.82;;;;;;;-3.13;100.00;97137.56;5021378;28;20057;-78
2021/01/26 01:30:56;;;;;;;35.60;16.70;;;;;;;-3.17;100.00;97124.00;5054786;28;20646;-78
2021/01/26 01:33:24;;;;;;;35.70;15.93;;;;;;;-3.14;100.00;97117.41;5036616;28;20044;-78
2021/01/26 01:35:51;;;;;;;34.53;16.02;;;;;;;-3.08;100.00;97121.75;5053753;28;20049;-77
2021/01/26 01:38:18;;;;;;;39.85;15.57;;;;;;;-3.11;100.00;97122.25;5036208;28;20040;-78
2021/01/26 01:40:47;;;;;;;32.95;14.85;;;;;;;-3.05;100.00;97113.34;5054797;28;20045;-77
2021/01/26 01:43:13;;;;;;;29.88;14.40;;;;;;;-3.05;100.00;97118.63;5037469;28;20070;-78
2021/01/26 01:45:39;;;;;;;27.65;13.55;;;;;;;-3.08;100.00;97115.66;5036116;28;20057;-78
2021/01/26 01:48:21;;;;;;;26.20;13.48;;;;;;;-3.05;100.00;97129.22;5020618;28;20048;-78
2021/01/26 01:51:01;;;;;;;30.50;13.77;;;;;;;-3.07;100.00;97117.28;5036803;28;20196;-78
2021/01/26 01:53:32;;;;;;;27.48;12.77;;;;;;;-3.11;100.00;97122.25;5036800;28;20041;-77
2021/01/26 01:56:06;;;;;;;29.23;13.25;;;;;;;-3.09;100.00;97114.84;5035622;28;20044;-77
2021/01/26 01:58:38;;;;;;;28.52;12.07;;;;;;;-3.12;100.00;97122.50;5054309;28;20083;-78
2021/01/26 02:01:09;;;;;;;30.27;12.07;;;;;;;-3.13;100.00;97119.03;5036326;28;20045;-77
2021/01/26 02:03:40;;;;;;;27.65;12.23;;;;;;;-3.22;100.00;97115.16;5054350;28;20049;-78
2021/01/26 02:06:09;;;;;;;23.15;11.05;;;;;;;-3.27;100.00;97123.84;5054107;28;20519;-78
2021/01/26 02:08:47;;;;;;;27.23;11.88;;;;;;;-3.26;100.00;97119.34;5022175;28;20052;-78
2021/01/26 02:11:13;;;;;;;26.63;11.20;;;;;;;-3.26;100.00;97114.88;5057832;28;20052;-77
2021/01/26 02:13:40;;;;;;;27.25;11.60;;;;;;;-3.25;100.00;97121.75;5023768;28;20053;-78
2021/01/26 02:16:09;;;;;;;24.10;11.18;;;;;;;-3.22;100.00;97123.09;5038075;28;20052;-79
2021/01/26 02:18:55;;;;;;;22.17;10.88;;;;;;;-3.17;100.00;97115.25;5039400;28;20496;-77
2021/01/26 02:21:39;;;;;;;23.40;10.30;;;;;;;-3.14;100.00;97120.06;5039711;28;20060;-78
2021/01/26 02:24:28;;;;;;;21.37;9.73;;;;;;;-3.00;100.00;97120.56;5056327;28;20041;-78
2021/01/26 02:27:20;;;;;;;19.05;9.45;;;;;;;-3.05;100.00;97104.59;5037255;28;20406;-78
2021/01/26 02:30:31;;;;;;;20.98;9.20;;;;;;;-2.97;100.00;97106.84;5078354;23;20052;-83
2021/01/26 02:33:22;;;;;;;21.10;9.20;;;;;;;-2.93;100.00;97105.31;5013782;28;20050;-82
2021/01/26 02:36:17;;;;;;;24.42;9.02;;;;;;;-2.90;100.00;97110.91;5078026;28;20043;-84
2021/01/26 02:39:12;;;;;;;16.92;8.45;;;;;;;-2.85;100.00;97118.94;5050012;28;20045;-82
2021/01/26 02:41:48;;;;;;;17.15;7.50;;;;;;;-2.88;100.00;97110.66;5058657;28;20411;-83
2021/01/26 02:44:40;;;;;;;18.98;8.45;;;;;;;-2.88;100.00;97110.66;5078487;23;20131;-80
2021/01/26 02:47:29;;;;;;;18.63;7.78;;;;;;;-2.88;100.00;97119.41;5041221;28;20044;-80
2021/01/26 02:49:56;;;;;;;19.42;8.15;;;;;;;-2.97;100.00;97123.53;5032560;28;20603;-80
2021/01/26 02:52:34;;;;;;;21.15;8.52;;;;;;;-3.06;100.00;97126.81;5056952;28;20201;-80
2021/01/26 02:55:07;;;;;;;20.25;8.15;;;;;;;-3.04;100.00;97122.06;5040645;28;20068;-81
2021/01/26 02:57:52;;;;;;;18.38;8.32;;;;;;;-3.02;100.00;97120.00;5054079;28;20070;-80
2021/01/26 03:00:29;;;;;;;20.88;9.70;;;;;;;-3.07;100.00;97114.63;5018954;28;20076;-79
2021/01/26 03:03:06;;;;;;;18.75;8.85;;;;;;;-3.12;100.00;97122.50;5053508;28;20041;-80
2021/01/26 03:05:44;;;;;;;19.13;8.75;;;;;;;-3.25;100.00;97121.75;5058062;28;20041;-80
2021/01/26 03:08:17;;;;;;;21.33;8.85;;;;;;;-3.18;100.00;97127.69;5048083;28;20045;-79
2021/01/26 03:10:54;;;;;;;19.48;9.25;;;;;;;-3.14;100.00;97128.00;5043951;28;20095;-81
2021/01/26 03:13:22;;;;;;;18.50;9.05;;;;;;;-3.18;100.00;97122.41;5041244;28;20055;-80
2021/01/26 03:15:56;;;;;;;19.80;10.00;;;;;;;-3.09;100.00;97120.16;5039952;28;20463;-80
2021/01/26 03:18:32;;;;;;;23.75;9.75;;;;;;;-3.08;100.00;97129.69;5041127;28;20044;-81
2021/01/26 03:21:02;;;;;;;23.63;10.57;;;;;;;-3.03;100.00;97119.19;5040022;28;20056;-80
2021/01/26 03:23:42;;;;;;;21.98;9.60;;;;;;;-2.92;100.00;97128.91;5057167;28;20048;-80
2021/01/26 03:26:35;;;;;;;19.75;9.05;;;;;;;-2.92;100.00;97126.25;5039768;28;20055;-81
2021/01/26 03:29:06;;;;;;;20.42;9.50;;;;;;;-2.92;100.00;97120.97;5053984;28;20067;-81
2021/01/26 03:31:40;;;;;;;16.98;8.50;;;;;;;-2.94;100.00;97115.09;5056976;28;20048;-80
2021/01/26 03:34:07;;;;;;;18.15;9.02;;;;;;;-2.88;100.00;97129.22;5051935;28;20415;-81
2021/01/26 03:36:35;;;;;;;25.52;9.85;;;;;;;-2.98;100.00;97113.97;5052692;28;20098;-80
2021/01/26 03:39:03;;;;;;;18.38;9.18;;;;;;;-2.96;100.00;97121.66;5034666;28;20045;-79
2021/01/26 03:41:30;;;;;;;19.27;9.77;;;;;;;-2.99;100.00;97122.94;5034277;28;20296;-80
2021/01/26 03:43:57;;;;;;;16.58;9.25;;;;;;;-3.04;100.00;97130.81;5052267;28;20464;-79
2021/01/26 03:46:40;;;;;;;21.00;9.23;;;;;;;-2.95;100.00;97116.16;5035356;28;20401;-80
2021/01/26 03:49:48;;;;;;;17.30;8.82;;;;;;;-2.83;100.00;97116.84;5054124;28;20500;-80
2021/01/26 03:52:32;;;;;;;17.58;9.18;;;;;;;-2.92;100.00;97118.31;5035847;28;20053;-80
2021/01/26 03:55:16;;;;;;;22.42;9.20;;;;;;;-2.91;100.00;97119.91;5036553;28;20045;-80
2021/01/26 03:57:54;;;;;;;18.65;8.93;;;;;;;-2.90;100.00;97118.88;5054604;28;20128;-81
2021/01/26 04:00:45;;;;;;;16.45;8.27;;;;;;;-2.82;100.00;97107.88;5055927;28;20037;-80
2021/01/26 04:03:46;;;;;;;25.08;10.27;;;;;;;-2.91;100.00;97111.97;5057954;28;20045;-79
2021/01/26 04:06:27;;;;;;;21.52;9.73;;;;;;;-3.08;100.00;97087.34;5063575;28;20040;-80
2021/01/26 04:08:59;;;;;;;20.30;9.68;;;;;;;-2.91;100.00;97106.66;5057260;28;20060;-80
2021/01/26 04:11:39;;;;;;;21.65;10.18;;;;;;;-2.87;100.00;97117.59;5050260;28;20059;-80
2021/01/26 04:14:26;;;;;;;21.02;10.32;;;;;;;-2.93;100.00;97103.47;5033438;28;20488;-81
2021/01/26 04:17:07;;;;;;;18.27;9.43;;;;;;;-2.93;100.00;97111.41;5035073;28;20045;-79
2021/01/26 04:19:39;;;;;;;20.85;9.77;;;;;;;-3.05;100.00;97105.41;5062544;28;20057;-81
2021/01/26 04:22:09;;;;;;;24.02;10.40;;;;;;;-3.08;100.00;97105.88;5059357;28;20060;-80
2021/01/26 04:24:36;;;;;;;22.42;10.30;;;;;;;-3.04;100.00;97111.47;5058433;28;20045;-80
2021/01/26 04:27:08;;;;;;;22.65;9.57;;;;;;;-3.00;100.00;97100.19;5058586;28;20045;-80
2021/01/26 04:29:34;;;;;;;17.00;9.18;;;;;;;-2.88;100.00;97111.47;5043414;28;20297;-80
2021/01/26 04:32:00;;;;;;;17.08;9.15;;;;;;;-2.79;100.00;97099.44;5061291;28;20196;-79
2021/01/26 04:34:27;;;;;;;22.42;10.32;;;;;;;-2.69;100.00;97112.03;5065519;28;20059;-82
2021/01/26 04:36:53;;;;;;;20.55;9.75;;;;;;;-2.62;100.00;97105.50;5063330;28;20041;-80
2021/01/26 04:39:20;;;;;;;18.92;9.57;;;;;;;-2.68;100.00;97093.22;5040905;28;20045;-80
2021/01/26 04:41:59;;;;;;;18.67;9.32;;;;;;;-2.57;100.00;97108.22;5058637;28;20043;-80
2021/01/26 04:44:54;;;;;;;21.92;9.43;;;;;;;-2.60;100.00;97108.72;5059559;28;20037;-79
2021/01/26 04:47:28;;;;;;;21.05;9.77;;;;;;;-2.57;100.00;97125.97;5035093;28;20137;-79
2021/01/26 04:50:19;;;;;;;22.25;10.50;;;;;;;-2.57;100.00;97118.81;5036459;28;20112;-79
2021/01/26 04:53:06;;;;;;;22.00;10.15;;;;;;;-2.53;100.00;97119.91;5054838;28;20041;-79
2021/01/26 04:55:56;;;;;;;19.20;9.50;;;;;;;-2.45;100.00;97128.53;5054733;28;20047;-80
2021/01/26 04:59:10;;;;;;;22.05;11.30;;;;;;;-2.46;100.00;97108.34;5060841;28;20053;-80
2021/01/26 05:02:24;;;;;;;19.15;10.10;;;;;;;-2.31;100.00;97127.91;5024914;28;20103;-80
2021/01/26 05:05:01;;;;;;;21.58;10.25;;;;;;;-2.39;100.00;97107.13;5017276;28;20624;-80
2021/01/26 05:07:41;;;;;;;17.73;7.72;;;;;;;-2.32;100.00;97112.25;4999997;28;20057;-80
2021/01/26 05:10:15;;;;;;;17.58;9.75;;;;;;;-2.30;100.00;97118.91;5029655;28;20078;-80
2021/01/26 05:12:47;;;;;;;19.55;9.75;;;;;;;-2.28;100.00;97108.88;5059362;28;20060;-81
2021/01/26 05:15:21;;;;;;;21.05;10.75;;;;;;;-2.27;100.00;97112.31;5058800;28;20051;-80
2021/01/26 05:18:16;;;;;;;20.70;10.85;;;;;;;-2.24;100.00;97095.91;5062493;28;20041;-79
2021/01/26 05:20:49;;;;;;;19.35;8.23;;;;;;;-2.11;100.00;97100.84;5047047;28;20488;-81
2021/01/26 05:23:23;;;;;;;21.42;10.73;;;;;;;-2.03;100.00;97109.16;5059589;28;20049;-80
2021/01/26 05:26:08;;;;;;;19.95;10.27;;;;;;;-2.02;100.00;97116.09;5059563;28;20140;-80
2021/01/26 05:28:37;;;;;;;21.70;10.77;;;;;;;-1.99;100.00;97109.50;5057802;28;20057;-81
2021/01/26 05:31:08;;;;;;;21.52;10.80;;;;;;;-1.95;100.00;97102.63;5060713;28;20097;-81
2021/01/26 05:33:36;;;;;;;23.08;11.00;;;;;;;-1.99;100.00;97093.56;5047312;28;20040;-81
2021/01/26 05:36:03;;;;;;;24.00;12.10;;;;;;;-1.92;100.00;97096.81;5065542;28;20041;-81
2021/01/26 05:38:29;;;;;;;19.85;11.13;;;;;;;-1.95;100.00;97094.66;5065366;28;20063;-81
2021/01/26 05:41:04;;;;;;;23.13;11.73;;;;;;;-1.88;100.00;97099.78;5060048;28;20041;-81
2021/01/26 05:43:33;;;;;;;24.05;11.32;;;;;;;-1.83;100.00;97105.94;5054548;28;20048;-81
2021/01/26 05:46:02;;;;;;;20.55;11.07;;;;;;;-1.82;100.00;97099.59;5054781;28;20049;-82
2021/01/26 05:48:45;;;;;;;22.15;10.75;;;;;;;-1.80;100.00;97108.09;5055642;28;20539;-80
2021/01/26 05:51:19;;;;;;;24.38;11.65;;;;;;;-1.85;100.00;97100.09;5055280;28;20051;-81
2021/01/26 05:53:52;;;;;;;23.38;11.10;;;;;;;-1.83;100.00;97097.97;5037273;28;20048;-81
2021/01/26 05:56:20;;;;;;;21.25;10.70;;;;;;;-1.80;100.00;97094.03;5053978;28;20045;-81
2021/01/26 05:58:49;;;;;;;20.45;11.10;;;;;;;-1.84;100.00;97088.44;5053711;28;20491;-80
2021/01/26 06:01:26;;;;;;;21.25;11.20;;;;;;;-1.80;100.00;97102.78;5051660;28;20053;-80
2021/01/26 06:04:15;;;;;;;19.38;10.40;;;;;;;-1.76;100.00;97081.88;5051590;28;20519;-81
2021/01/26 06:06:54;;;;;;;20.83;10.98;;;;;;;-1.70;100.00;97092.28;5052996;28;20064;-80
2021/01/26 06:09:28;;;;;;;20.40;11.30;;;;;;;-1.68;100.00;97095.50;5054505;28;20048;-81
2021/01/26 06:12:18;;;;;;;23.35;11.88;;;;;;;-1.60;100.00;97091.59;5054921;28;20052;-81
2021/01/26 06:14:56;;;;;;;20.33;11.15;;;;;;;-1.57;100.00;97091.88;5052949;28;20040;-84
2021/01/26 06:17:24;;;;;;;23.65;10.80;;;;;;;-1.49;100.00;97094.09;5054715;28;20104;-81
2021/01/26 06:20:13;;;;;;;21.25;11.45;;;;;;;-1.52;100.00;97078.66;5059653;28;20047;-81
2021/01/26 06:22:40;;;;;;;17.52;8.02;;;;;;;-1.59;100.00;97083.38;5063663;28;20380;-81
2021/01/26 06:25:32;;;;;;;19.92;10.50;;;;;;;-1.64;100.00;97091.28;5050671;28;20048;-81
2021/01/26 06:28:15;;;;;;;19.98;10.43;;;;;;;-1.61;100.00;97082.84;5047713;28;20055;-80
2021/01/26 06:30:52;;;;;;;16.43;7.73;;;;;;;-1.63;100.00;97087.59;5053808;28;20103;-79
2021/01/26 06:33:55;;;;;;;21.13;10.77;;;;;;;-1.63;100.00;97100.06;5054277;28;20052;-80
2021/01/26 06:36:55;;;;;;;20.75;10.45;;;;;;;-1.59;100.00;97086.03;5055265;28;20037;-79
2021/01/26 06:39:37;;;;;;;22.70;10.85;;;;;;;-1.55;100.00;97079.16;5056003;28;20047;-80
2021/01/26 06:42:09;;;;;;;20.83;11.30;;;;;;;-1.57;100.00;97081.25;5039498;28;20461;-80
2021/01/26 06:44:58;;;;;;;20.67;11.57;;;;;;;-1.57;100.00;97081.25;5065500;28;20033;-79
2021/01/26 06:47:54;;;;;;;26.10;12.70;;;;;;;-1.50;100.00;97089.84;5067921;28;20117;-79
2021/01/26 06:50:48;;;;;;;22.80;12.50;;;;;;;-1.54;100.00;97080.78;5063811;28;20072;-78
2021/01/26 06:53:28;;;;;;;25.73;12.75;;;;;;;-1.50;100.00;97087.19;5061685;28;20041;-80
2021/01/26 06:55:57;;;;;;;22.27;11.98;;;;;;;-1.47;100.00;97085.88;5061570;28;20085;-77
2021/01/26 06:58:48;;;;;;;25.00;12.80;;;;;;;-1.43;100.00;97086.97;5074188;28;20045;-79
2021/01/26 07:02:08;;;;;;;22.35;12.35;;;;;;;-1.45;100.00;97092.53;5061135;28;20090;-80
2021/01/26 07:04:42;;;;;;;23.98;12.60;;;;;;;-1.33;100.00;97092.38;5016042;28;20049;-79
2021/01/26 07:07:26;;;;;;;23.70;13.05;;;;;;;-1.27;100.00;97097.50;5058201;28;20084;-80
2021/01/26 07:10:07;;;;;;;26.15;13.20;;;;;;;-1.26;100.00;97095.59;5039820;28;20048;-80
2021/01/26 07:13:05;;;;;;;25.85;13.38;;;;;;;-1.21;100.00;97089.56;5035023;28;20047;-82
2021/01/26 07:15:37;;;;;;;28.80;14.38;;;;;;;-1.18;100.00;97089.03;5053893;28;20037;-83
2021/01/26 07:18:15;;;;;;;23.95;13.23;;;;;;;-1.06;100.00;97092.34;5069639;28;20044;-83
2021/01/26 07:21:01;;;;;;;24.15;13.82;;;;;;;-1.07;100.00;97090.72;5073259;28;20106;-79
2021/01/26 07:23:45;;;;;;;23.67;13.00;;;;;;;-1.10;100.00;97084.06;5070149;28;20049;-81
2021/01/26 07:26:30;;;;;;;26.23;13.57;;;;;;;-1.10;100.00;97091.22;5075655;28;20040;-81
2021/01/26 07:29:18;;;;;;;30.92;13.85;;;;;;;-1.08;100.00;97091.75;5057646;28;20483;-81
2021/01/26 07:31:49;;;;;;;23.60;13.90;;;;;;;-1.00;100.00;97076.16;5057468;28;20048;-81
2021/01/26 07:34:37;;;;;;;25.05;12.75;;;;;;;-1.00;100.00;97080.69;5075931;28;20059;-79
2021/01/26 07:37:13;;;;;;;23.58;12.55;;;;;;;-0.98;100.00;97078.59;5059095;28;20056;-80
2021/01/26 07:39:44;;;;;;;23.52;11.90;;;;;;;-0.94;100.00;97079.66;5056541;28;20158;-81
2021/01/26 07:42:28;;;;;;;21.77;12.57;;;;;;;-0.94;100.00;97088.44;5073839;28;20056;-81
2021/01/26 07:45:12;;;;;;;26.05;14.07;;;;;;;-0.90;100.00;97070.94;5081711;28;20059;-81
2021/01/26 07:47:45;;;;;;;29.40;14.77;;;;;;;-0.92;100.00;97090.84;5074650;28;20055;-81
2021/01/26 07:50:33;;;;;;;26.45;13.82;;;;;;;-0.97;100.00;97077.50;5058915;28;20041;-82
2021/01/26 07:53:06;;;;;;;28.63;14.88;;;;;;;-0.88;100.00;97082.09;5075790;28;20052;-82
2021/01/26 07:55:45;;;;;;;;;;;;;;;-0.93;100.00;97081.28;5077826;28;20037;-80
2021/01/26 07:58:12;;;;;;;;;;;;;;;-0.94;100.00;97077.81;5058844;28;19920;-82
2021/01/26 08:00:41;;;;;;;28.65;14.15;;;;;;;-0.94;100.00;97079.66;5075123;28;19924;-80
2021/01/26 08:03:09;;;;;;;34.72;15.68;;;;;;;-0.92;100.00;97075.69;5073883;28;20066;-80
2021/01/26 08:05:40;;;;;;;30.38;15.85;;;;;;;-0.90;100.00;97084.22;5064007;28;20045;-81
2021/01/26 08:08:14;;;;;;;29.58;15.88;;;;;;;-0.95;100.00;97081.50;5063666;28;20048;-80
2021/01/26 08:10:40;;;;;;;33.05;16.95;;;;;;;-0.86;100.00;97103.09;5045220;28;20063;-81
2021/01/26 08:13:08;;;;;;;32.58;15.88;;;;;;;-0.87;100.00;97090.88;5044673;28;20128;-80
2021/01/26 08:15:40;;;;;;;31.38;16.75;;;;;;;-0.84;100.00;97093.81;5045693;28;20115;-83
2021/01/26 08:18:21;;;;;;;29.73;16.13;;;;;;;-0.79;100.00;97096.50;5046952;28;20047;-80
2021/01/26 08:20:47;;;;;;;30.73;17.08;;;;;;;-0.85;100.00;97091.44;5063163;28;20070;-79
2021/01/26 08:23:27;;;;;;;30.13;16.83;;;;;;;-0.80;100.00;97096.78;5029178;28;20065;-80
2021/01/26 08:25:55;;;;;;;26.63;15.15;;;;;;;-0.77;100.00;97093.59;5064224;28;20067;-80
2021/01/26 08:28:48;;;;;;;30.65;16.42;;;;;;;-0.84;100.00;97103.66;5065825;28;20522;-80
2021/01/26 08:31:34;;;;;;;32.65;16.13;;;;;;;-0.81;100.00;97084.53;5062836;28;20063;-80
2021/01/26 08:34:20;;;;;;;33.60;17.05;;;;;;;-0.76;100.00;97088.03;5041820;28;20563;-81
2021/01/26 08:36:46;;;;;;;31.20;17.40;;;;;;;-0.82;100.00;97086.38;5045742;28;20059;-80
2021/01/26 08:39:15;;;;;;;31.33;17.00;;;;;;;-0.72;100.00;97088.31;5043739;28;20048;-81
2021/01/26 08:41:50;;;;;;;28.83;15.38;;;;;;;-0.67;100.00;97101.63;5043991;28;20056;-81
2021/01/26 08:44:19;;;;;;;25.80;14.57;;;;;;;-0.60;100.00;97093.44;5080010;22;20048;-83
2021/01/26 08:46:48;;;;;;;26.48;15.00;;;;;;;-0.65;100.00;97073.75;5065279;28;20072;-83
2021/01/26 08:49:30;;;;;;;26.27;14.52;;;;;;;-0.51;100.00;97090.03;5072592;28;20045;-83
2021/01/26 08:52:22;;;;;;;26.83;14.50;;;;;;;-0.22;100.00;97095.75;5054738;28;20174;-84
2021/01/26 08:54:53;;;;;;;23.45;13.23;;;;;;;-0.07;100.00;97086.00;5073009;28;20263;-82
2021/01/26 08:57:26;;;;;;;22.25;12.25;;;;;;;0.13;100.00;97087.13;5054608;28;20056;-82
2021/01/26 09:00:16;;;;;;;19.77;11.43;;;;;;;0.34;100.00;97086.91;5072664;28;20495;-81
2021/01/26 09:02:51;;;;;;;17.55;11.02;;;;;;;0.36;100.00;97084.78;5054434;28;20052;-83
2021/01/26 09:05:35;;;;;;;17.70;11.27;;;;;;;0.51;100.00;97089.34;5072350;28;20059;-81
2021/01/26 09:08:07;;;;;;;19.67;10.27;;;;;;;0.34;100.00;97072.78;5072205;28;20051;-81
2021/01/26 09:10:39;;;;;;;17.40;10.07;;;;;;;0.26;100.00;97078.66;5045855;28;20060;-81
2021/01/26 09:13:08;;;;;;;17.85;9.85;;;;;;;0.18;100.00;97081.81;5054360;28;20051;-81
2021/01/26 09:15:43;;;;;;;16.85;9.38;;;;;;;0.04;100.00;97088.69;5057585;28;20659;-82
2021/01/26 09:18:15;;;;;;;17.42;9.75;;;;;;;0.00;100.00;97094.53;5077043;28;20043;-81
2021/01/26 09:20:41;;;;;;;17.08;10.02;;;;;;;-0.09;100.00;97092.63;5075915;28;20041;-82
2021/01/26 09:23:09;;;;;;;16.95;10.68;;;;;;;-0.18;100.00;97079.03;5075904;28;20040;-82
2021/01/26 09:25:41;;;;;;;17.67;10.10;;;;;;;-0.18;100.00;97088.88;5058397;28;20041;-82
2021/01/26 09:28:16;;;;;;;21.05;10.85;;;;;;;-0.29;100.00;97093.34;5081173;28;20048;-81
2021/01/26 09:30:45;;;;;;;25.30;11.35;;;;;;;-0.25;100.00;97094.44;5079854;28;20033;-81
2021/01/26 09:33:11;;;;;;;20.67;11.00;;;;;;;-0.18;100.00;97102.19;5079407;28;20021;-81
2021/01/26 09:36:08;;;;;;;21.02;11.68;;;;;;;-0.16;100.00;97094.75;5096390;28;20037;-81
2021/01/26 09:38:43;;;;;;;21.77;12.05;;;;;;;-0.10;100.00;97107.78;5075018;28;20060;-81
2021/01/26 09:41:12;;;;;;;16.03;9.63;;;;;;;-0.11;100.00;97111.53;5075457;28;20076;-81
2021/01/26 09:43:40;;;;;;;19.23;10.25;;;;;;;-0.02;100.00;97111.81;5077197;28;20051;-82
2021/01/26 09:46:14;;;;;;;19.40;10.75;;;;;;;0.17;100.00;97122.78;5057652;28;20068;-81
2021/01/26 09:48:45;;;;;;;19.08;10.40;;;;;;;0.26;100.00;97105.28;5075959;28;20280;-82
2021/01/26 09:51:14;;;;;;;18.48;10.65;;;;;;;0.39;100.00;97126.03;5060724;28;20048;-81
2021/01/26 09:53:44;;;;;;;21.08;10.75;;;;;;;0.45;100.00;97120.50;5056586;28;20060;-81
2021/01/26 09:56:14;;;;;;;19.83;10.80;;;;;;;0.37;100.00;97115.66;5056611;28;20041;-82
2021/01/26 09:58:45;;;;;;;19.85;10.82;;;;;;;0.44;100.00;97120.75;5073537;28;20519;-82
2021/01/26 10:01:14;;;;;;;18.20;10.75;;;;;;;0.51;100.00;97130.09;5056217;28;20115;-81
2021/01/26 10:03:41;;;;;;;20.77;11.27;;;;;;;0.57;100.00;97122.91;5074378;28;20218;-82
2021/01/26 10:06:09;;;;;;;19.85;11.10;;;;;;;0.60;100.00;97133.03;5074376;28;20538;-81
2021/01/26 10:08:35;;;;;;;20.55;11.35;;;;;;;0.67;100.00;97130.13;5039565;28;20470;-81
2021/01/26 10:11:18;;;;;;;22.75;11.63;;;;;;;0.72;100.00;97130.94;5056445;28;20040;-81
2021/01/26 10:13:46;;;;;;;18.60;9.60;;;;;;;0.41;100.00;97121.28;5073757;28;20041;-80
2021/01/26 10:16:24;;;;;;;20.90;10.55;;;;;;;0.31;100.00;97142.56;5055272;28;20182;-82
2021/01/26 10:18:51;;;;;;;19.85;10.68;;;;;;;0.31;100.00;97138.00;5073274;28;20041;-81
2021/01/26 10:21:26;;;;;;;20.05;9.95;;;;;;;0.34;100.00;97139.34;5055991;28;20048;-82
2021/01/26 10:24:01;;;;;;;;;;;;;;;0.29;100.00;97139.31;5056280;28;20052;-82
2021/01/26 10:26:31;;;;;;;24.02;11.25;;;;;;;0.41;100.00;97146.03;5071026;28;20250;-82
2021/01/26 10:29:05;;;;;;;17.63;10.10;;;;;;;0.42;100.00;97144.16;5053865;28;20037;-83
2021/01/26 10:31:55;;;;;;;22.55;10.48;;;;;;;0.54;100.00;97156.19;5050448;28;20044;-82
2021/01/26 10:34:30;;;;;;;19.58;10.30;;;;;;;0.52;100.00;97149.50;5058602;28;20071;-84
2021/01/26 10:37:23;;;;;;;19.92;9.95;;;;;;;0.47;100.00;97144.16;5044411;28;20084;-82
2021/01/26 10:40:07;;;;;;;17.98;10.02;;;;;;;0.54;100.00;97152.72;5061951;28;20044;-84
2021/01/26 10:42:34;;;;;;;17.15;9.90;;;;;;;0.57;100.00;97150.31;5061758;28;20086;-83
2021/01/26 10:45:00;;;;;;;20.65;10.65;;;;;;;0.58;100.00;97156.47;5079795;28;20056;-82
2021/01/26 10:47:34;;;;;;;18.70;9.90;;;;;;;0.58;100.00;97164.44;5080562;28;20040;-82
2021/01/26 10:50:06;;;;;;;18.38;10.45;;;;;;;0.61;100.00;97175.38;5069745;28;20041;-82
2021/01/26 10:52:40;;;;;;;21.67;12.52;;;;;;;0.55;100.00;97162.31;5074168;28;20095;-82
2021/01/26 10:55:09;;;;;;;21.30;11.40;;;;;;;0.58;100.00;97177.75;5075232;28;20186;-80
2021/01/26 10:57:39;;;;;;;20.35;11.50;;;;;;;0.56;100.00;97183.38;5076281;28;20508;-82
2021/01/26 11:00:17;;;;;;;18.67;10.80;;;;;;;0.47;100.00;97171.59;5046799;28;20118;-82
2021/01/26 11:02:44;;;;;;;19.92;11.55;;;;;;;0.42;100.00;97152.16;5085529;28;20059;-81
2021/01/26 11:05:13;;;;;;;21.23;11.07;;;;;;;0.73;100.00;97185.78;5079087;28;20515;-81
2021/01/26 11:07:39;;;;;;;22.30;12.30;;;;;;;0.62;100.00;97157.53;5068679;28;20040;-82
2021/01/26 11:10:08;;;;;;;22.17;12.55;;;;;;;0.74;100.00;97197.25;5113040;22;20262;-82
2021/01/26 11:12:39;;;;;;;19.13;10.77;;;;;;;0.78;100.00;97183.13;5145884;23;20039;-81
2021/01/26 11:15:18;;;;;;;24.83;11.90;;;;;;;0.85;100.00;97197.00;5081228;28;20047;-82
2021/01/26 11:17:45;;;;;;;22.98;12.57;;;;;;;0.98;100.00;97198.38;5073838;28;20056;-88
2021/01/26 11:20:12;;;;;;;24.85;12.80;;;;;;;0.90;100.00;97201.56;5025879;28;20060;-80
2021/01/26 11:22:38;;;;;;;21.23;12.30;;;;;;;0.96;100.00;97189.81;5078081;28;20059;-83
2021/01/26 11:25:07;;;;;;;18.58;11.27;;;;;;;0.85;100.00;97204.22;5086814;28;20048;-83
2021/01/26 11:27:35;;;;;;;19.25;11.52;;;;;;;0.85;100.00;97201.53;5074540;28;20040;-82
2021/01/26 11:30:07;;;;;;;22.85;12.15;;;;;;;0.82;100.00;97210.06;5075252;28;20048;-82
2021/01/26 11:32:35;;;;;;;23.02;12.57;;;;;;;0.83;100.00;97207.13;5056534;28;20056;-82
2021/01/26 11:35:05;;;;;;;21.63;12.43;;;;;;;0.80;100.00;97212.19;5057015;28;20399;-81
2021/01/26 11:37:31;;;;;;;24.08;13.27;;;;;;;0.81;100.00;97209.25;5074708;28;20037;-82
2021/01/26 11:39:59;;;;;;;23.52;12.43;;;;;;;0.72;100.00;97200.19;5074756;28;20283;-83
2021/01/26 11:42:27;;;;;;;24.75;13.88;;;;;;;0.74;100.00;97207.91;5030462;28;20499;-83
2021/01/26 11:44:54;;;;;;;26.27;13.60;;;;;;;0.82;100.00;97196.75;5046507;28;20049;-83
2021/01/26 11:47:21;;;;;;;25.10;13.82;;;;;;;0.76;100.00;97192.44;5026830;28;20067;-83
2021/01/26 11:49:48;;;;;;;22.65;13.57;;;;;;;0.80;100.00;97207.63;5044711;28;20263;-82